Time,TemperatureF,DewpointF,PressureIn,WindDirection,WindDirectionDegrees,WindSpeedMPH,WindSpeedGustMPH,Humidity,HourlyPrecipIn,Conditions,Clouds,dailyrainin,SolarRadiationWatts/m^2,SoftwareType,DateUTC
2013-07-17 00:32:00,63.0,52.0,-100.00,NNE,24,5.0,7.0,68,0.00,,,-99.99,0.000000,,2013-07-17 06:32:00,
2013-07-17 00:43:00,63.0,52.0,-100.00,NNE,24,5.0,7.0,68,0.00,,,-99.99,0.000000,,2013-07-17 06:43:00,
2013-07-17 00:52:00,63.0,52.0,-100.00,NNE,24,5.0,7.0,68,0.00,,,-99.99,0.000000,,2013-07-17 06:52:00,
2013-07-17 01:32:00,61.0,55.0,-100.00,NNW,338,4.0,6.0,80,0.00,,,-99.99,0.000000,,2013-07-17 07:32:00,
2013-07-17 01:42:00,61.0,55.0,-100.00,NNW,338,4.0,6.0,80,0.00,,,-99.99,0.000000,,2013-07-17 07:42:00,
2013-07-17 01:52:00,61.0,55.0,-100.00,NNW,338,4.0,6.0,80,0.00,,,-99.99,0.000000,,2013-07-17 07:52:00,
2013-07-17 02:32:00,61.0,56.0,-100.00,North,10,5.0,9.0,83,0.00,,,-99.99,0.000000,,2013-07-17 08:32:00,
2013-07-17 02:43:00,61.0,56.0,-100.00,North,10,5.0,9.0,83,0.00,,,-99.99,0.000000,,2013-07-17 08:43:00,
2013-07-17 02:53:00,61.0,56.0,-100.00,North,10,5.0,9.0,83,0.00,,,-99.99,0.000000,,2013-07-17 08:53:00,
2013-07-17 03:32:00,62.0,56.0,-100.00,NNW,346,4.0,6.0,82,0.00,,,-99.99,0.000000,,2013-07-17 09:32:00,
2013-07-17 03:43:00,62.0,56.0,-100.00,NNW,346,4.0,6.0,82,0.00,,,-99.99,0.000000,,2013-07-17 09:43:00,
2013-07-17 03:52:00,62.0,56.0,-100.00,NNW,346,4.0,6.0,82,0.00,,,-99.99,0.000000,,2013-07-17 09:52:00,
2013-07-17 04:32:00,62.0,56.0,-100.00,SSE,157,2.0,5.0,81,0.00,,,-99.99,0.000000,,2013-07-17 10:32:00,
2013-07-17 04:43:00,62.0,56.0,-100.00,SSE,157,2.0,5.0,81,0.00,,,-99.99,0.000000,,2013-07-17 10:43:00,
2013-07-17 04:52:00,62.0,56.0,-100.00,SSE,157,2.0,5.0,81,0.00,,,-99.99,0.000000,,2013-07-17 10:52:00,
2013-07-17 05:32:00,62.0,56.0,-100.00,East,101,1.0,4.0,82,0.00,,,-99.99,0.000000,,2013-07-17 11:32:00,
2013-07-17 05:42:00,62.0,56.0,-100.00,East,101,1.0,4.0,82,0.00,,,-99.99,0.000000,,2013-07-17 11:42:00,
2013-07-17 05:52:00,62.0,56.0,-100.00,East,101,1.0,4.0,82,0.00,,,-99.99,0.000000,,2013-07-17 11:52:00,
2013-07-17 06:32:00,62.0,57.0,-100.00,NW,312,3.0,5.0,84,0.00,,,-99.99,7.000000,,2013-07-17 12:32:00,
2013-07-17 06:42:00,62.0,57.0,-100.00,NW,312,3.0,5.0,84,0.00,,,-99.99,7.000000,,2013-07-17 12:42:00,
2013-07-17 06:53:00,62.0,57.0,-100.00,NW,312,3.0,5.0,84,0.00,,,-99.99,7.000000,,2013-07-17 12:53:00,
2013-07-17 07:32:00,63.0,56.0,-100.00,West,278,4.0,5.0,79,0.00,,,-99.99,72.000000,,2013-07-17 13:32:00,
2013-07-17 07:43:00,63.0,56.0,-100.00,West,278,4.0,5.0,79,0.00,,,-99.99,72.000000,,2013-07-17 13:43:00,
2013-07-17 07:52:00,63.0,56.0,-100.00,West,278,4.0,5.0,79,0.00,,,-99.99,72.000000,,2013-07-17 13:52:00,
2013-07-17 08:32:00,67.0,58.0,-100.00,East,87,2.0,6.0,72,0.00,,,-99.99,237.000000,,2013-07-17 14:32:00,
2013-07-17 08:43:00,67.0,58.0,-100.00,East,87,2.0,6.0,72,0.00,,,-99.99,237.000000,,2013-07-17 14:43:00,
2013-07-17 08:52:00,67.0,58.0,-100.00,East,87,2.0,6.0,72,0.00,,,-99.99,237.000000,,2013-07-17 14:52:00,
2013-07-17 09:32:00,71.0,59.0,-100.00,WSW,257,4.0,6.0,67,0.00,,,-99.99,373.000000,,2013-07-17 15:32:00,
2013-07-17 09:42:00,71.0,59.0,-100.00,WSW,257,4.0,6.0,67,0.00,,,-99.99,373.000000,,2013-07-17 15:42:00,
2013-07-17 09:52:00,71.0,59.0,-100.00,WSW,257,4.0,6.0,67,0.00,,,-99.99,373.000000,,2013-07-17 15:52:00,
2013-07-17 10:33:00,72.0,57.0,-100.00,SW,223,3.0,9.0,60,0.00,,,-99.99,487.000000,,2013-07-17 16:33:00,
2013-07-17 10:42:00,72.0,57.0,-100.00,SW,223,3.0,9.0,60,0.00,,,-99.99,487.000000,,2013-07-17 16:42:00,
2013-07-17 10:52:00,72.0,57.0,-100.00,SW,223,3.0,9.0,60,0.00,,,-99.99,487.000000,,2013-07-17 16:52:00,
2013-07-17 11:32:00,75.0,62.0,-100.00,West,273,7.0,12.0,63,0.00,,,0.00,383.000000,,2013-07-17 17:32:00,
2013-07-17 11:43:00,75.0,62.0,-100.00,West,273,7.0,12.0,63,0.00,,,0.00,383.000000,,2013-07-17 17:43:00,
2013-07-17 11:52:00,75.0,62.0,-100.00,West,273,7.0,12.0,63,0.00,,,0.00,383.000000,,2013-07-17 17:52:00,
2013-07-17 12:22:00,79.0,61.0,-100.00,North,358,4.0,11.0,55,0.00,,,-99.99,753.000000,,2013-07-17 18:22:00,
2013-07-17 12:32:00,79.0,61.0,-100.00,North,358,4.0,11.0,55,0.00,,,-99.99,753.000000,,2013-07-17 18:32:00,
2013-07-17 12:43:00,79.0,61.0,-100.00,North,358,4.0,11.0,55,0.00,,,-99.99,753.000000,,2013-07-17 18:43:00,
2013-07-17 12:52:00,79.0,61.0,-100.00,North,358,4.0,11.0,55,0.00,,,-99.99,753.000000,,2013-07-17 18:52:00,
2013-07-17 13:32:00,81.0,61.0,-100.00,North,8,5.0,11.0,50,0.00,,,0.00,674.000000,,2013-07-17 19:32:00,
2013-07-17 13:43:00,81.0,61.0,-100.00,North,8,5.0,11.0,50,0.00,,,0.00,674.000000,,2013-07-17 19:43:00,
2013-07-17 13:53:00,81.0,61.0,-100.00,North,8,5.0,11.0,50,0.00,,,0.00,674.000000,,2013-07-17 19:53:00,
2013-07-17 14:33:00,85.0,62.0,-100.00,West,261,4.0,10.0,46,0.00,,,0.00,647.000000,,2013-07-17 20:33:00,
2013-07-17 14:43:00,85.0,62.0,-100.00,West,261,4.0,10.0,46,0.00,,,0.00,647.000000,,2013-07-17 20:43:00,
2013-07-17 14:52:00,85.0,62.0,-100.00,West,261,4.0,10.0,46,0.00,,,0.00,647.000000,,2013-07-17 20:52:00,
2013-07-17 15:32:00,86.0,62.0,-100.00,NW,304,4.0,10.0,44,0.00,,,0.00,595.000000,,2013-07-17 21:32:00,
2013-07-17 15:42:00,86.0,62.0,-100.00,NW,304,4.0,10.0,44,0.00,,,0.00,595.000000,,2013-07-17 21:42:00,
2013-07-17 15:52:00,86.0,62.0,-100.00,NW,304,4.0,10.0,44,0.00,,,0.00,595.000000,,2013-07-17 21:52:00,
2013-07-17 16:32:00,88.0,61.0,-100.00,NE,50,4.0,7.0,41,0.00,,,0.00,473.000000,,2013-07-17 22:32:00,
2013-07-17 16:43:00,88.0,61.0,-100.00,NE,50,4.0,7.0,41,0.00,,,0.00,473.000000,,2013-07-17 22:43:00,
2013-07-17 16:53:00,88.0,61.0,-100.00,NE,50,4.0,7.0,41,0.00,,,0.00,473.000000,,2013-07-17 22:53:00,
2013-07-17 17:32:00,89.0,61.0,-100.00,NW,325,7.0,10.0,39,0.00,,,0.00,424.000000,,2013-07-17 23:32:00,
2013-07-17 17:43:00,89.0,61.0,-100.00,NW,325,7.0,10.0,39,0.00,,,0.00,424.000000,,2013-07-17 23:43:00,
2013-07-17 17:52:00,89.0,61.0,-100.00,NW,325,7.0,10.0,39,0.00,,,0.00,424.000000,,2013-07-17 23:52:00,
2013-07-17 18:33:00,89.0,64.0,-100.00,NNW,345,7.0,12.0,43,0.00,,,0.00,376.000000,,2013-07-18 00:33:00,
2013-07-17 18:43:00,89.0,64.0,-100.00,NNW,345,7.0,12.0,43,0.00,,,0.00,376.000000,,2013-07-18 00:43:00,
2013-07-17 18:52:00,89.0,64.0,-100.00,NNW,345,7.0,12.0,43,0.00,,,0.00,376.000000,,2013-07-18 00:52:00,
2013-07-17 19:32:00,89.0,64.0,-100.00,NW,326,6.0,12.0,43,0.00,,,0.00,292.000000,,2013-07-18 01:32:00,
2013-07-17 19:42:00,89.0,64.0,-100.00,NW,326,6.0,12.0,43,0.00,,,0.00,292.000000,,2013-07-18 01:42:00,
2013-07-17 19:53:00,89.0,64.0,-100.00,NW,326,6.0,12.0,43,0.00,,,0.00,292.000000,,2013-07-18 01:53:00,
2013-07-17 20:32:00,82.0,60.0,-100.00,NNW,333,4.0,9.0,48,0.00,,,0.00,81.000000,,2013-07-18 02:32:00,
2013-07-17 20:43:00,82.0,60.0,-100.00,NNW,333,4.0,9.0,48,0.00,,,0.00,81.000000,,2013-07-18 02:43:00,
2013-07-17 20:52:00,82.0,60.0,-100.00,NNW,333,4.0,9.0,48,0.00,,,0.00,81.000000,,2013-07-18 02:52:00,
2013-07-17 21:32:00,79.0,63.0,-100.00,NNW,336,4.0,7.0,59,0.00,,,0.00,13.000000,,2013-07-18 03:32:00,
2013-07-17 21:43:00,79.0,63.0,-100.00,NNW,336,4.0,7.0,59,0.00,,,0.00,13.000000,,2013-07-18 03:43:00,
2013-07-17 21:52:00,79.0,63.0,-100.00,NNW,336,4.0,7.0,59,0.00,,,0.00,13.000000,,2013-07-18 03:52:00,
2013-07-17 22:32:00,78.0,64.0,-100.00,NNE,14,3.0,7.0,63,0.00,,,0.00,0.000000,,2013-07-18 04:32:00,
2013-07-17 22:43:00,78.0,64.0,-100.00,NNE,14,3.0,7.0,63,0.00,,,0.00,0.000000,,2013-07-18 04:43:00,
2013-07-17 22:52:00,78.0,64.0,-100.00,NNE,14,3.0,7.0,63,0.00,,,0.00,0.000000,,2013-07-18 04:52:00,
2013-07-17 23:32:00,77.0,64.0,-100.00,NW,320,4.0,13.0,64,0.00,,,0.00,0.000000,,2013-07-18 05:32:00,
2013-07-17 23:42:00,77.0,64.0,-100.00,NW,320,4.0,13.0,64,0.00,,,0.00,0.000000,,2013-07-18 05:42:00,
2013-07-17 23:52:00,77.0,64.0,-100.00,NW,320,4.0,13.0,64,0.00,,,0.00,0.000000,,2013-07-18 05:52:00,